createdAt,value
2018-01-20T00:02:10.339Z,5.80
2018-01-20T00:04:37.608Z,3.33
2018-01-20T00:07:04.869Z,5.40
2018-01-20T00:09:37.927Z,3.13
2018-01-20T00:12:05.173Z,3.23
2018-01-20T00:14:32.457Z,3.30
2018-01-20T00:16:59.707Z,3.03
2018-01-20T00:19:27.005Z,3.10
2018-01-20T00:21:54.257Z,3.20
2018-01-20T00:24:21.507Z,4.10
2018-01-20T00:26:50.737Z,3.17
2018-01-20T00:29:18.067Z,2.70
2018-01-20T00:31:45.315Z,3.53
2018-01-20T00:34:12.591Z,6.50
2018-01-20T00:36:39.856Z,3.27
2018-01-20T00:39:07.137Z,3.80
2018-01-20T00:41:34.435Z,3.33
2018-01-20T00:44:01.692Z,3.30
2018-01-20T00:46:28.958Z,2.93
2018-01-20T00:48:56.211Z,2.90
2018-01-20T00:51:23.588Z,2.70
2018-01-20T00:53:50.803Z,3.03
2018-01-20T00:56:18.082Z,2.93
2018-01-20T00:58:45.348Z,2.73
2018-01-20T01:01:12.614Z,2.37
2018-01-20T01:03:39.863Z,2.70
2018-01-20T01:06:07.132Z,3.30
2018-01-20T01:08:34.387Z,2.40
2018-01-20T01:11:01.646Z,2.33
2018-01-20T01:13:28.891Z,2.20
2018-01-20T01:15:56.164Z,2.80
2018-01-20T01:18:23.415Z,2.30
2018-01-20T01:20:50.698Z,2.60
2018-01-20T01:23:17.951Z,2.37
2018-01-20T01:25:45.211Z,2.30
2018-01-20T01:28:12.560Z,2.70
2018-01-20T01:30:39.810Z,2.60
2018-01-20T01:33:07.075Z,2.60
2018-01-20T01:35:34.319Z,2.67
2018-01-20T01:38:01.584Z,2.83
2018-01-20T01:40:28.836Z,2.57
2018-01-20T01:42:56.176Z,2.47
2018-01-20T01:45:23.432Z,2.43
2018-01-20T01:47:50.691Z,2.40
2018-01-20T01:50:17.940Z,2.30
2018-01-20T01:52:45.209Z,2.60
2018-01-20T01:55:12.459Z,2.70
2018-01-20T01:57:39.804Z,2.50
2018-01-20T02:00:07.047Z,3.37
2018-01-20T02:02:34.323Z,2.70
2018-01-20T02:05:01.567Z,2.20
2018-01-20T02:07:28.816Z,2.60
2018-01-20T02:09:56.092Z,2.37
2018-01-20T02:12:23.340Z,2.50
2018-01-20T02:14:50.612Z,2.60
2018-01-20T02:17:17.928Z,2.73
2018-01-20T02:19:45.201Z,2.40
2018-01-20T02:22:12.460Z,3.40
2018-01-20T02:24:39.723Z,2.23
2018-01-20T02:27:06.977Z,3.50
2018-01-20T02:29:34.251Z,2.93
2018-01-20T02:32:01.560Z,2.83
2018-01-20T02:34:28.910Z,3.03
2018-01-20T02:36:56.158Z,2.83
2018-01-20T02:39:23.511Z,2.80
2018-01-20T02:41:50.768Z,2.83
2018-01-20T02:44:18.125Z,2.37
2018-01-20T02:46:45.384Z,2.20
2018-01-20T02:49:12.652Z,2.07
2018-01-20T02:51:39.901Z,1.83
2018-01-20T02:54:07.158Z,1.90
2018-01-20T02:56:34.419Z,2.67
2018-01-20T02:59:01.673Z,2.70
2018-01-20T03:01:28.943Z,2.40
2018-01-20T03:03:56.196Z,2.00
2018-01-20T03:06:23.471Z,2.33
2018-01-20T03:08:50.719Z,2.27
2018-01-20T03:11:17.992Z,1.97
2018-01-20T03:13:45.240Z,1.93
2018-01-20T03:16:12.527Z,2.03
2018-01-20T03:18:39.776Z,1.60
2018-01-20T03:21:07.031Z,1.77
2018-01-20T03:23:34.284Z,2.00
2018-01-20T03:26:01.551Z,1.87
2018-01-20T03:28:28.889Z,1.70
2018-01-20T03:30:56.152Z,1.80
2018-01-20T03:33:23.401Z,1.90
2018-01-20T03:35:50.676Z,1.37
2018-01-20T03:38:18.009Z,1.47
2018-01-20T03:40:45.280Z,1.80
2018-01-20T03:43:12.528Z,1.30
2018-01-20T03:45:39.801Z,1.50
2018-01-20T03:48:07.120Z,1.30
2018-01-20T03:50:34.447Z,1.30
2018-01-20T03:53:01.688Z,1.40
2018-01-20T03:55:28.935Z,1.40
2018-01-20T03:57:56.209Z,1.47
2018-01-20T04:00:23.488Z,1.40
2018-01-20T04:02:50.752Z,2.03
2018-01-20T04:05:18.000Z,1.60
2018-01-20T04:07:45.271Z,1.60
2018-01-20T04:10:12.515Z,1.47
2018-01-20T04:12:39.856Z,1.77
2018-01-20T04:15:07.108Z,1.30
2018-01-20T04:17:34.371Z,1.60
2018-01-20T04:20:01.616Z,1.50
2018-01-20T04:22:28.884Z,1.53
2018-01-20T04:24:56.128Z,1.20
2018-01-20T04:27:23.401Z,1.57
2018-01-20T04:29:50.649Z,1.23
2018-01-20T04:32:17.922Z,1.40
2018-01-20T04:34:45.179Z,1.50
2018-01-20T04:37:12.450Z,1.40
2018-01-20T04:39:39.696Z,1.30
2018-01-20T04:42:06.971Z,2.60
2018-01-20T04:44:34.227Z,1.53
2018-01-20T04:47:01.515Z,1.40
2018-01-20T04:49:28.785Z,1.53
2018-01-20T04:51:56.032Z,1.73
2018-01-20T04:54:23.350Z,1.20
2018-01-20T04:56:50.636Z,1.20
2018-01-20T04:59:17.976Z,1.57
2018-01-20T05:01:45.232Z,2.00
2018-01-20T05:04:12.499Z,1.20
2018-01-20T05:06:39.751Z,1.60
2018-01-20T05:09:07.026Z,1.27
2018-01-20T05:11:34.351Z,1.80
2018-01-20T05:14:01.619Z,1.43
2018-01-20T05:16:28.878Z,1.33
2018-01-20T05:18:56.149Z,1.50
2018-01-20T05:21:23.497Z,1.20
2018-01-20T05:23:50.739Z,1.70
2018-01-20T05:26:17.990Z,1.33
2018-01-20T05:28:45.324Z,1.57
2018-01-20T05:31:12.580Z,1.40
2018-01-20T05:33:39.828Z,1.20
2018-01-20T05:36:07.108Z,1.63
2018-01-20T05:38:34.349Z,1.70
2018-01-20T05:41:01.616Z,1.37
2018-01-20T05:43:28.872Z,1.60
2018-01-20T05:45:56.136Z,1.60
2018-01-20T05:48:23.400Z,1.33
2018-01-20T05:50:50.654Z,1.20
2018-01-20T05:53:17.920Z,1.50
2018-01-20T05:55:45.229Z,1.77
2018-01-20T05:58:12.494Z,1.60
2018-01-20T06:00:39.751Z,1.10
2018-01-20T06:03:06.999Z,1.77
2018-01-20T06:05:34.264Z,1.43
2018-01-20T06:08:01.511Z,1.60
2018-01-20T06:10:28.788Z,1.67
2018-01-20T06:12:56.096Z,2.27
2018-01-20T06:15:23.346Z,1.53
2018-01-20T06:17:50.650Z,1.40
2018-01-20T06:20:17.881Z,1.50
2018-01-20T06:22:45.128Z,1.90
2018-01-20T06:25:12.404Z,1.77
2018-01-20T06:27:39.717Z,1.67
2018-01-20T06:30:07.000Z,1.70
2018-01-20T06:32:34.252Z,1.83
2018-01-20T06:35:01.495Z,2.00
2018-01-20T06:37:28.784Z,1.70
2018-01-20T06:39:56.087Z,1.70
2018-01-20T06:42:23.341Z,1.60
2018-01-20T06:44:50.694Z,1.90
2018-01-20T06:47:17.949Z,2.40
2018-01-20T06:49:45.216Z,2.50
2018-01-20T06:52:12.500Z,2.80
2018-01-20T06:54:39.748Z,2.43
2018-01-20T06:57:07.026Z,2.30
2018-01-20T06:59:34.271Z,2.13
2018-01-20T07:02:01.552Z,2.50
2018-01-20T07:04:28.805Z,2.50
2018-01-20T07:06:56.053Z,2.90
2018-01-20T07:09:23.324Z,2.80
2018-01-20T07:11:50.572Z,2.50
2018-01-20T07:14:17.859Z,2.83
2018-01-20T07:16:45.109Z,3.03
2018-01-20T07:19:12.449Z,2.70
2018-01-20T07:21:39.720Z,2.80
2018-01-20T07:24:06.963Z,2.63
2018-01-20T07:26:34.308Z,2.87
2018-01-20T07:29:01.556Z,2.70
2018-01-20T07:31:28.854Z,2.60
2018-01-20T07:33:56.104Z,2.43
2018-01-20T07:36:23.366Z,3.00
2018-01-20T07:38:50.632Z,2.77
2018-01-20T07:41:17.896Z,3.37
2018-01-20T07:43:45.139Z,3.70
2018-01-20T07:46:12.428Z,3.40
2018-01-20T07:48:39.667Z,3.97
2018-01-20T07:51:07.040Z,3.13
2018-01-20T07:53:34.293Z,3.50
2018-01-20T07:56:01.544Z,3.53
2018-01-20T07:58:28.837Z,3.10
2018-01-20T08:00:56.084Z,2.90
2018-01-20T08:03:23.360Z,3.40
2018-01-20T08:05:50.773Z,3.00
2018-01-20T08:08:18.064Z,2.80
2018-01-20T08:10:45.319Z,3.40
2018-01-20T08:13:12.564Z,3.50
2018-01-20T08:15:39.836Z,2.60
2018-01-20T08:18:07.089Z,3.13
2018-01-20T08:20:34.374Z,3.47
2018-01-20T08:23:01.619Z,2.93
2018-01-20T08:25:28.900Z,3.27
2018-01-20T08:27:56.148Z,3.30
2018-01-20T08:30:23.396Z,3.30
2018-01-20T08:32:50.760Z,3.60
2018-01-20T08:35:18.011Z,3.30
2018-01-20T08:37:45.301Z,3.20
2018-01-20T08:40:12.576Z,3.13
2018-01-20T08:42:39.821Z,3.30
2018-01-20T08:45:07.505Z,3.10
2018-01-20T08:47:34.743Z,3.10
2018-01-20T08:50:02.025Z,3.37
2018-01-20T08:52:29.276Z,3.60
2018-01-20T08:54:56.558Z,3.30
2018-01-20T08:57:23.803Z,3.87
2018-01-20T08:59:51.168Z,3.40
2018-01-20T09:02:18.472Z,3.53
2018-01-20T09:04:45.692Z,3.33
2018-01-20T09:07:12.944Z,3.50
2018-01-20T09:09:40.379Z,3.57
2018-01-20T09:12:07.635Z,4.90
2018-01-20T09:14:34.988Z,4.23
2018-01-20T09:17:02.241Z,4.37
2018-01-20T09:19:29.491Z,5.07
2018-01-20T09:21:56.856Z,4.40
2018-01-20T09:24:24.101Z,4.53
2018-01-20T09:26:51.346Z,4.67
2018-01-20T09:29:18.620Z,4.30
2018-01-20T09:31:45.871Z,4.80
2018-01-20T09:34:13.152Z,3.60
2018-01-20T09:36:40.409Z,3.40
2018-01-20T09:39:07.676Z,4.17
2018-01-20T09:41:34.934Z,3.80
2018-01-20T09:44:02.184Z,3.77
2018-01-20T09:46:29.460Z,4.30
2018-01-20T09:48:56.716Z,3.80
2018-01-20T09:51:24.120Z,4.77
2018-01-20T09:53:51.372Z,4.70
2018-01-20T09:56:18.648Z,5.10
2018-01-20T09:58:45.899Z,5.33
2018-01-20T10:01:13.169Z,4.70
2018-01-20T10:03:40.425Z,5.70
2018-01-20T10:06:07.719Z,6.23
2018-01-20T10:08:34.974Z,5.80
2018-01-20T10:11:02.251Z,4.90
2018-01-20T10:13:29.503Z,6.20
2018-01-20T10:15:56.760Z,6.73
2018-01-20T10:18:24.035Z,7.70
2018-01-20T10:20:51.557Z,6.70
2018-01-20T10:23:18.840Z,6.63
2018-01-20T10:25:46.093Z,6.80
2018-01-20T10:28:13.397Z,6.30
2018-01-20T10:30:40.672Z,7.07
2018-01-20T10:33:07.933Z,6.27
2018-01-20T10:35:35.216Z,6.73
2018-01-20T10:38:02.470Z,6.90
2018-01-20T10:40:29.744Z,6.77
2018-01-20T10:42:57.004Z,6.53
2018-01-20T10:45:24.284Z,7.57
2018-01-20T10:47:51.536Z,7.13
2018-01-20T10:50:18.891Z,7.53
2018-01-20T10:52:46.143Z,6.20
2018-01-20T10:55:13.499Z,8.13
2018-01-20T10:57:40.761Z,6.90
2018-01-20T11:00:08.020Z,6.60
2018-01-20T11:02:36.062Z,6.90
2018-01-20T11:05:03.335Z,8.00
2018-01-20T11:07:30.694Z,7.97
2018-01-20T11:09:57.972Z,9.73
2018-01-20T11:12:25.235Z,8.80
2018-01-20T11:14:52.523Z,8.77
2018-01-20T11:17:19.812Z,8.97
2018-01-20T11:19:47.168Z,7.83
2018-01-20T11:22:14.448Z,7.57
2018-01-20T11:24:41.725Z,9.93
2018-01-20T11:27:08.986Z,7.30
2018-01-20T11:29:36.278Z,7.13
2018-01-20T11:32:03.981Z,7.23
2018-01-20T11:34:31.266Z,7.23
2018-01-20T11:36:58.551Z,5.10
2018-01-20T11:39:25.827Z,7.30
2018-01-20T11:41:53.093Z,6.77
2018-01-20T11:44:20.355Z,7.20
2018-01-20T11:46:47.673Z,5.40
2018-01-20T11:49:14.959Z,5.13
2018-01-20T11:51:42.284Z,8.00
2018-01-20T11:54:09.573Z,6.87
2018-01-20T11:56:36.892Z,7.70
2018-01-20T11:59:04.243Z,4.73
2018-01-20T12:01:31.699Z,4.17
2018-01-20T12:03:58.955Z,3.20
2018-01-20T12:06:26.213Z,3.93
2018-01-20T12:08:53.487Z,3.50
2018-01-20T12:11:20.739Z,4.93
2018-01-20T12:13:48.011Z,3.87
2018-01-20T12:16:15.363Z,3.97
2018-01-20T12:18:42.571Z,3.00
2018-01-20T12:21:09.823Z,4.50
2018-01-20T12:23:37.097Z,3.80
2018-01-20T12:26:04.347Z,3.97
2018-01-20T12:28:31.634Z,3.07
2018-01-20T12:30:58.900Z,2.77
2018-01-20T12:33:26.176Z,4.37
2018-01-20T12:35:53.423Z,4.13
2018-01-20T12:38:20.811Z,3.23
2018-01-20T12:40:48.064Z,3.20
2018-01-20T12:43:15.330Z,3.73
2018-01-20T12:45:42.604Z,2.70
2018-01-20T12:48:09.886Z,3.50
2018-01-20T12:50:37.143Z,2.67
2018-01-20T12:53:04.391Z,4.00
2018-01-20T12:55:31.675Z,2.90
2018-01-20T12:57:58.938Z,2.93
2018-01-20T13:00:26.235Z,3.03
2018-01-20T13:02:53.552Z,2.77
2018-01-20T13:05:20.902Z,2.80
2018-01-20T13:07:48.185Z,1.70
2018-01-20T13:10:15.448Z,1.63
2018-01-20T13:12:42.709Z,2.17
2018-01-20T13:15:09.979Z,1.73
2018-01-20T13:17:37.227Z,1.40
2018-01-20T13:20:04.519Z,1.50
2018-01-20T13:22:31.764Z,1.93
2018-01-20T13:24:59.012Z,1.47
2018-01-20T13:27:26.289Z,1.63
2018-01-20T13:29:53.560Z,1.50
2018-01-20T13:32:20.807Z,1.60
2018-01-20T13:34:48.082Z,1.70
2018-01-20T13:37:15.332Z,1.40
2018-01-20T13:39:42.615Z,1.93
2018-01-20T13:42:09.907Z,1.70
2018-01-20T13:44:37.151Z,1.63
2018-01-20T13:47:04.434Z,1.70
2018-01-20T13:49:31.685Z,1.60
2018-01-20T13:51:58.963Z,1.67
2018-01-20T13:54:26.360Z,1.33
2018-01-20T13:56:53.632Z,1.50
2018-01-20T13:59:20.884Z,1.20
2018-01-20T14:01:48.185Z,1.50
2018-01-20T14:04:15.439Z,2.10
2018-01-20T14:06:42.687Z,1.60
2018-01-20T14:09:09.964Z,1.83
2018-01-20T14:11:37.216Z,1.17
2018-01-20T14:14:04.497Z,1.20
2018-01-20T14:16:31.746Z,1.50
2018-01-20T14:18:59.071Z,1.90
2018-01-20T14:21:26.327Z,1.40
2018-01-20T14:23:53.581Z,1.67
2018-01-20T14:26:20.867Z,1.90
2018-01-20T14:28:48.139Z,2.93
2018-01-20T14:31:15.384Z,2.50
2018-01-20T14:33:42.676Z,2.17
2018-01-20T14:36:09.990Z,1.70
2018-01-20T14:38:37.242Z,2.23
2018-01-20T14:41:04.524Z,2.00
2018-01-20T14:43:31.780Z,1.27
2018-01-20T14:45:59.059Z,1.27
2018-01-20T14:48:26.359Z,1.63
2018-01-20T14:50:53.607Z,2.63
2018-01-20T14:53:26.915Z,3.73
2018-01-20T14:55:54.173Z,1.33
2018-01-20T14:58:21.456Z,2.13
2018-01-20T15:00:48.710Z,2.40
2018-01-20T15:03:15.957Z,1.93
2018-01-20T15:05:43.233Z,2.43
2018-01-20T15:08:10.596Z,1.93
2018-01-20T15:10:37.897Z,3.67
2018-01-20T15:13:05.144Z,1.80
2018-01-20T15:15:32.397Z,4.03
2018-01-20T15:17:59.671Z,5.60
2018-01-20T15:20:26.924Z,2.70
2018-01-20T15:22:54.200Z,2.20
2018-01-20T15:25:21.517Z,1.20
2018-01-20T15:27:48.968Z,1.23
2018-01-20T15:30:16.220Z,1.43
2018-01-20T15:32:43.471Z,1.60
2018-01-20T15:35:10.749Z,1.30
2018-01-20T15:37:38.048Z,1.10
2018-01-20T15:40:05.308Z,1.40
2018-01-20T15:42:32.560Z,0.97
2018-01-20T15:44:59.831Z,1.10
2018-01-20T15:47:27.080Z,1.17
2018-01-20T15:49:54.363Z,0.80
2018-01-20T15:52:21.621Z,0.70
2018-01-20T15:54:48.871Z,1.07
2018-01-20T15:57:16.156Z,0.97
2018-01-20T15:59:43.436Z,1.10
2018-01-20T16:02:10.681Z,1.07
2018-01-20T16:04:37.963Z,0.90
2018-01-20T16:07:05.211Z,1.10
2018-01-20T16:09:32.463Z,1.23
2018-01-20T16:11:59.736Z,0.93
2018-01-20T16:14:26.988Z,1.30
2018-01-20T16:16:54.268Z,1.30
2018-01-20T16:19:21.516Z,1.60
2018-01-20T16:21:48.787Z,1.60
2018-01-20T16:24:16.070Z,0.60
2018-01-20T16:26:43.335Z,0.57
2018-01-20T16:29:10.592Z,0.50
2018-01-20T16:31:37.860Z,1.00
2018-01-20T16:34:05.135Z,1.70
2018-01-20T16:36:32.414Z,0.77
2018-01-20T16:38:59.667Z,0.80
2018-01-20T16:41:26.954Z,0.70
2018-01-20T16:43:54.199Z,0.90
2018-01-20T16:46:21.460Z,0.70
2018-01-20T16:48:48.730Z,0.60
2018-01-20T16:51:15.992Z,1.60
2018-01-20T16:53:44.353Z,1.77
2018-01-20T16:56:11.596Z,1.27
2018-01-20T16:58:38.872Z,0.70
2018-01-20T17:01:06.128Z,2.73
2018-01-20T17:03:33.406Z,6.60
2018-01-20T17:06:00.655Z,3.53
2018-01-20T17:08:27.931Z,2.50
2018-01-20T17:10:55.185Z,1.60
2018-01-20T17:13:22.459Z,0.80
2018-01-20T17:15:49.715Z,0.60
2018-01-20T17:18:17.008Z,0.90
2018-01-20T17:20:44.259Z,1.30
2018-01-20T17:23:11.516Z,0.50
2018-01-20T17:25:38.799Z,1.27
2018-01-20T17:28:06.052Z,1.10
2018-01-20T17:30:33.305Z,1.47
2018-01-20T17:33:00.589Z,1.50
2018-01-20T17:35:27.833Z,0.80
2018-01-20T17:37:55.109Z,5.53
2018-01-20T17:40:22.355Z,2.00
2018-01-20T17:42:49.632Z,1.30
2018-01-20T17:45:16.884Z,0.60
2018-01-20T17:47:44.164Z,0.60
2018-01-20T17:50:11.411Z,0.60
2018-01-20T17:52:38.699Z,0.40
2018-01-20T17:55:05.956Z,1.10
2018-01-20T17:57:33.203Z,0.87
2018-01-20T18:00:00.485Z,1.00
2018-01-20T18:02:27.776Z,2.70
2018-01-20T18:04:55.036Z,0.90
2018-01-20T18:07:22.291Z,1.33
2018-01-20T18:09:49.575Z,2.10
2018-01-20T18:12:16.832Z,1.87
2018-01-20T18:14:44.096Z,3.20
2018-01-20T18:17:11.372Z,2.57
2018-01-20T18:19:38.627Z,2.13
2018-01-20T18:22:05.900Z,2.03
2018-01-20T18:24:33.176Z,2.10
2018-01-20T18:27:00.467Z,2.50
2018-01-20T18:29:27.724Z,1.83
2018-01-20T18:31:54.989Z,1.60
2018-01-20T18:34:22.280Z,2.03
2018-01-20T18:36:49.524Z,2.10
2018-01-20T18:39:16.771Z,2.27
2018-01-20T18:41:44.053Z,3.83
2018-01-20T18:44:11.307Z,10.30
2018-01-20T18:46:38.604Z,6.97
2018-01-20T18:49:05.895Z,5.40
2018-01-20T18:51:33.140Z,3.53
2018-01-20T18:54:00.400Z,3.40
2018-01-20T18:56:27.684Z,5.90
2018-01-20T18:58:54.948Z,3.70
2018-01-20T19:01:22.291Z,3.10
2018-01-20T19:03:49.544Z,4.40
2018-01-20T19:06:16.816Z,3.20
2018-01-20T19:08:44.069Z,2.87
2018-01-20T19:11:11.352Z,3.70
2018-01-20T19:13:38.595Z,2.57
2018-01-20T19:16:05.880Z,2.10
2018-01-20T19:18:33.136Z,2.10
2018-01-20T19:21:00.416Z,1.77
2018-01-20T19:23:27.676Z,1.40
2018-01-20T19:25:54.931Z,1.50
2018-01-20T19:28:22.229Z,1.80
2018-01-20T19:30:49.481Z,2.30
2018-01-20T19:33:16.732Z,2.03
2018-01-20T19:35:44.026Z,14.47
2018-01-20T19:38:11.288Z,10.23
2018-01-20T19:40:38.579Z,8.83
2018-01-20T19:43:05.836Z,4.97
2018-01-20T19:45:33.091Z,3.67
2018-01-20T19:48:00.372Z,3.90
2018-01-20T19:50:27.632Z,2.07
2018-01-20T19:52:54.888Z,2.30
2018-01-20T19:55:22.164Z,3.60
2018-01-20T19:57:49.451Z,3.20
2018-01-20T20:00:16.704Z,3.10
2018-01-20T20:02:43.963Z,4.23
2018-01-20T20:05:11.239Z,3.13
2018-01-20T20:07:38.509Z,3.83
2018-01-20T20:10:05.788Z,2.87
2018-01-20T20:12:33.036Z,2.70
2018-01-20T20:15:00.305Z,2.40
2018-01-20T20:17:27.603Z,3.20
2018-01-20T20:19:54.819Z,4.03
2018-01-20T20:22:22.100Z,4.30
2018-01-20T20:24:49.384Z,3.40
2018-01-20T20:27:16.642Z,5.67
2018-01-20T20:29:43.892Z,7.20
2018-01-20T20:32:11.167Z,2.90
2018-01-20T20:34:38.425Z,3.13
2018-01-20T20:37:05.704Z,4.57
2018-01-20T20:39:32.979Z,5.20
2018-01-20T20:42:00.231Z,5.40
2018-01-20T20:44:27.504Z,5.07
2018-01-20T20:46:54.760Z,5.60
2018-01-20T20:49:22.032Z,7.53
2018-01-20T20:51:49.316Z,4.90
2018-01-20T20:54:16.561Z,6.63
2018-01-20T20:56:43.859Z,5.10
2018-01-20T20:59:11.131Z,6.20
2018-01-20T21:01:38.428Z,14.80
2018-01-20T21:04:05.687Z,6.20
2018-01-20T21:06:32.943Z,5.83
2018-01-20T21:09:00.206Z,5.97
2018-01-20T21:11:27.462Z,6.40
2018-01-20T21:13:54.744Z,6.57
2018-01-20T21:16:22.021Z,5.90
2018-01-20T21:18:49.329Z,7.20
2018-01-20T21:21:16.693Z,6.37
2018-01-20T21:23:43.940Z,5.50
2018-01-20T21:26:11.197Z,5.50
2018-01-20T21:28:38.474Z,6.30
2018-01-20T21:31:05.724Z,7.80
2018-01-20T21:33:33.010Z,7.53
2018-01-20T21:36:00.255Z,7.23
2018-01-20T21:38:27.521Z,6.40
2018-01-20T21:40:54.798Z,6.40
2018-01-20T21:43:22.057Z,6.97
2018-01-20T21:45:49.379Z,7.40
2018-01-20T21:48:16.659Z,6.70
2018-01-20T21:50:43.944Z,6.43
2018-01-20T21:53:11.203Z,5.60
2018-01-20T21:55:38.496Z,9.80
2018-01-20T21:58:05.744Z,8.20
2018-01-20T22:00:33.035Z,8.00
2018-01-20T22:03:00.296Z,7.20
2018-01-20T22:05:27.564Z,5.30
2018-01-20T22:07:54.856Z,6.60
2018-01-20T22:10:22.105Z,6.23
2018-01-20T22:12:49.364Z,5.60
2018-01-20T22:15:16.657Z,4.93
2018-01-20T22:17:43.917Z,5.20
2018-01-20T22:20:11.167Z,4.70
2018-01-20T22:22:38.452Z,4.97
2018-01-20T22:25:05.703Z,8.87
2018-01-20T22:27:32.968Z,5.30
2018-01-20T22:30:00.244Z,5.00
2018-01-20T22:32:27.496Z,4.40
2018-01-20T22:34:54.779Z,5.33
2018-01-20T22:37:22.040Z,4.60
2018-01-20T22:39:49.409Z,4.70
2018-01-20T22:42:16.660Z,5.20
2018-01-20T22:44:43.912Z,5.10
2018-01-20T22:47:11.183Z,5.20
2018-01-20T22:49:38.436Z,4.77
2018-01-20T22:52:05.725Z,5.07
2018-01-20T22:54:32.973Z,4.53
2018-01-20T22:57:00.248Z,7.87
2018-01-20T22:59:27.504Z,6.17
2018-01-20T23:01:54.797Z,5.40
2018-01-20T23:04:22.043Z,5.20
2018-01-20T23:06:49.291Z,6.07
2018-01-20T23:09:16.604Z,5.17
2018-01-20T23:11:43.827Z,5.10
2018-01-20T23:14:11.119Z,4.27
2018-01-20T23:16:38.373Z,4.70
2018-01-20T23:19:05.623Z,4.90
2018-01-20T23:21:32.904Z,5.60
2018-01-20T23:24:00.151Z,6.03
2018-01-20T23:26:27.408Z,5.20
2018-01-20T23:28:54.688Z,6.17
2018-01-20T23:31:21.995Z,4.93
2018-01-20T23:33:49.276Z,4.50
2018-01-20T23:36:16.530Z,4.07
2018-01-20T23:38:43.769Z,5.53
2018-01-20T23:41:11.042Z,4.93
